createdAt,value
2022-11-28T00:01:22.672Z,20.52
2022-11-28T00:03:50.302Z,20.23
2022-11-28T00:06:17.994Z,20.45
2022-11-28T00:08:45.467Z,20.40
2022-11-28T00:11:13.999Z,20.40
2022-11-28T00:13:41.458Z,20.40
2022-11-28T00:16:09.399Z,22.52
2022-11-28T00:18:37.018Z,21.65
2022-11-28T00:21:06.223Z,22.70
2022-11-28T00:23:33.739Z,21.02
2022-11-28T00:26:11.385Z,22.65
2022-11-28T00:28:38.745Z,23.85
2022-11-28T00:31:06.521Z,22.37
2022-11-28T00:33:33.950Z,22.05
2022-11-28T00:36:02.158Z,20.23
2022-11-28T00:38:29.749Z,22.47
2022-11-28T00:41:07.023Z,23.55
2022-11-28T00:43:34.657Z,21.65
2022-11-28T00:46:02.752Z,21.83
2022-11-28T00:48:30.157Z,21.12
2022-11-28T00:51:05.519Z,23.20
2022-11-28T00:53:32.839Z,21.20
2022-11-28T00:56:00.430Z,22.50
2022-11-28T00:58:27.745Z,21.73
2022-11-28T01:00:55.146Z,19.27
2022-11-28T01:03:22.782Z,21.12
2022-11-28T01:05:50.105Z,21.60
2022-11-28T01:08:17.447Z,19.95
2022-11-28T01:10:45.307Z,20.92
2022-11-28T01:13:12.634Z,20.67
2022-11-28T01:15:40.919Z,18.85
2022-11-28T01:18:08.849Z,17.87
2022-11-28T01:20:36.179Z,18.05
2022-11-28T01:23:03.545Z,18.30
2022-11-28T01:25:31.172Z,18.80
2022-11-28T01:27:58.487Z,17.40
2022-11-28T01:30:25.809Z,18.75
2022-11-28T01:32:53.438Z,18.52
2022-11-28T01:35:20.771Z,17.75
2022-11-28T01:37:48.106Z,19.37
2022-11-28T01:40:15.663Z,18.17
2022-11-28T01:42:42.988Z,20.45
2022-11-28T01:45:24.151Z,18.53
2022-11-28T01:47:52.120Z,16.10
2022-11-28T01:50:19.731Z,18.40
2022-11-28T01:52:48.232Z,18.40
2022-11-28T01:55:15.830Z,18.60
2022-11-28T01:57:43.156Z,17.35
2022-11-28T02:00:16.958Z,16.03
2022-11-28T02:02:47.909Z,17.53
2022-11-28T02:05:16.360Z,16.60
2022-11-28T02:07:44.175Z,15.90
2022-11-28T02:10:13.967Z,16.60
2022-11-28T02:13:09.047Z,16.17
2022-11-28T02:15:39.169Z,16.07
2022-11-28T02:18:29.065Z,17.23
2022-11-28T02:21:55.016Z,15.50
2022-11-28T02:24:57.787Z,17.30
2022-11-28T02:27:38.787Z,14.93
2022-11-28T02:30:12.995Z,16.00
2022-11-28T02:32:53.033Z,17.80
2022-11-28T02:35:44.903Z,17.00
2022-11-28T02:38:30.703Z,16.52
2022-11-28T02:41:06.987Z,14.80
2022-11-28T02:43:52.395Z,15.45
2022-11-28T02:46:27.638Z,15.55
2022-11-28T02:49:14.651Z,16.47
2022-11-28T02:51:44.743Z,16.90
2022-11-28T02:54:13.042Z,16.80
2022-11-28T02:56:50.014Z,16.63
2022-11-28T02:59:36.506Z,18.50
2022-11-28T03:02:28.852Z,16.75
2022-11-28T03:05:17.927Z,16.40
2022-11-28T03:08:04.176Z,15.52
2022-11-28T03:10:45.083Z,15.48
2022-11-28T03:13:32.078Z,17.45
2022-11-28T03:16:23.183Z,16.03
2022-11-28T03:19:02.945Z,18.63
2022-11-28T03:21:33.752Z,21.85
2022-11-28T03:24:02.963Z,18.13
2022-11-28T03:26:45.337Z,16.48
2022-11-28T03:29:16.387Z,17.20
2022-11-28T03:31:47.939Z,17.27
2022-11-28T03:34:16.636Z,16.77
2022-11-28T03:37:07.226Z,18.87
2022-11-28T03:39:37.124Z,17.37
2022-11-28T03:42:10.603Z,19.43
2022-11-28T03:45:00.880Z,17.63
2022-11-28T03:47:31.401Z,16.73
2022-11-28T03:50:01.702Z,17.67
2022-11-28T03:52:32.448Z,18.00
2022-11-28T03:55:02.222Z,19.50
2022-11-28T03:57:35.534Z,18.07
2022-11-28T04:00:08.141Z,17.90
2022-11-28T04:02:46.652Z,16.85
2022-11-28T04:05:46.635Z,17.13
2022-11-28T04:08:18.087Z,17.67
2022-11-28T04:10:57.057Z,16.80
2022-11-28T04:13:43.857Z,19.23
2022-11-28T04:16:21.853Z,18.12
2022-11-28T04:19:06.554Z,17.65
2022-11-28T04:22:21.905Z,18.37
2022-11-28T04:24:52.157Z,17.08
2022-11-28T04:27:24.239Z,14.80
2022-11-28T04:29:53.967Z,16.97
2022-11-28T04:32:21.769Z,16.70
2022-11-28T04:34:52.431Z,14.90
2022-11-28T04:37:19.779Z,16.35
2022-11-28T04:39:48.087Z,14.83
2022-11-28T04:42:17.823Z,16.42
2022-11-28T04:44:54.665Z,16.23
2022-11-28T04:47:22.770Z,16.77
2022-11-28T04:49:50.206Z,17.07
2022-11-28T04:52:24.891Z,16.58
2022-11-28T04:55:10.299Z,16.92
2022-11-28T04:57:39.328Z,15.70
2022-11-28T05:00:13.071Z,17.50
2022-11-28T05:02:40.988Z,15.67
2022-11-28T05:05:10.147Z,15.67
2022-11-28T05:07:37.528Z,15.73
2022-11-28T05:10:06.099Z,15.53
2022-11-28T05:12:33.697Z,17.33
2022-11-28T05:15:01.004Z,15.83
2022-11-28T05:17:28.350Z,16.40
2022-11-28T05:19:55.970Z,16.33
2022-11-28T05:22:23.341Z,16.23
2022-11-28T05:24:50.727Z,16.23
2022-11-28T05:27:18.319Z,18.80
2022-11-28T05:29:51.971Z,17.03
2022-11-28T05:32:20.207Z,18.08
2022-11-28T05:34:47.599Z,17.60
2022-11-28T05:37:14.944Z,18.33
2022-11-28T05:39:42.803Z,18.12
2022-11-28T05:42:10.299Z,18.50
2022-11-28T05:44:37.659Z,17.70
2022-11-28T05:47:05.290Z,20.10
2022-11-28T05:49:32.596Z,19.17
2022-11-28T05:52:00.094Z,18.20
2022-11-28T05:54:27.713Z,18.12
2022-11-28T05:56:55.057Z,19.00
2022-11-28T05:59:22.412Z,18.12
2022-11-28T06:01:50.011Z,18.77
2022-11-28T06:04:17.672Z,20.05
2022-11-28T06:06:45.204Z,17.12
2022-11-28T06:09:12.698Z,18.53
2022-11-28T06:11:40.370Z,18.03
2022-11-28T06:14:07.685Z,18.52
2022-11-28T06:16:35.042Z,18.23
2022-11-28T06:19:03.825Z,18.17
2022-11-28T06:21:31.606Z,16.83
2022-11-28T06:23:59.305Z,18.62
2022-11-28T06:26:27.412Z,18.40
2022-11-28T06:28:58.258Z,19.83
2022-11-28T06:31:30.355Z,19.03
2022-11-28T06:33:58.350Z,18.95
2022-11-28T06:36:26.418Z,21.05
2022-11-28T06:38:54.282Z,19.10
2022-11-28T06:41:24.519Z,19.40
2022-11-28T06:43:51.871Z,18.65
2022-11-28T06:46:20.497Z,18.87
2022-11-28T06:48:49.085Z,20.25
2022-11-28T06:51:16.501Z,19.40
2022-11-28T06:53:43.837Z,19.87
2022-11-28T06:56:14.116Z,18.67
2022-11-28T06:58:41.794Z,18.67
2022-11-28T07:01:14.211Z,18.45
2022-11-28T07:03:41.968Z,20.60
2022-11-28T07:06:09.538Z,19.35
2022-11-28T07:08:37.044Z,18.98
2022-11-28T07:11:16.422Z,19.62
2022-11-28T07:13:45.892Z,18.40
2022-11-28T07:16:17.971Z,18.33
2022-11-28T07:18:45.360Z,20.43
2022-11-28T07:21:14.629Z,19.92
2022-11-28T07:23:42.743Z,18.42
2022-11-28T07:26:10.513Z,18.30
2022-11-28T07:28:38.107Z,23.75
2022-11-28T07:31:27.848Z,20.08
2022-11-28T07:33:55.468Z,19.30
2022-11-28T07:36:26.896Z,20.57
2022-11-28T07:38:55.884Z,19.27
2022-11-28T07:41:26.521Z,19.12
2022-11-28T07:43:56.165Z,23.58
2022-11-28T07:46:24.075Z,18.48
2022-11-28T07:48:51.610Z,18.92
2022-11-28T07:51:23.394Z,19.12
2022-11-28T07:53:51.088Z,16.67
2022-11-28T07:56:20.541Z,17.27
2022-11-28T07:58:47.960Z,17.98
2022-11-28T08:01:17.195Z,18.80
2022-11-28T08:03:44.858Z,18.52
2022-11-28T08:06:14.272Z,17.63
2022-11-28T08:08:41.684Z,16.67
2022-11-28T08:11:09.491Z,16.77
2022-11-28T08:13:37.385Z,18.27
2022-11-28T08:16:06.673Z,17.77
2022-11-28T08:18:35.125Z,16.73
2022-11-28T08:21:07.026Z,18.35
2022-11-28T08:23:34.732Z,16.25
2022-11-28T08:26:02.870Z,15.73
2022-11-28T08:28:30.314Z,16.83
2022-11-28T08:30:59.466Z,17.10
2022-11-28T08:33:26.956Z,16.87
2022-11-28T08:35:54.264Z,15.40
2022-11-28T08:38:21.914Z,16.35
2022-11-28T08:40:49.286Z,15.60
2022-11-28T08:43:16.770Z,16.27
2022-11-28T08:45:44.426Z,15.97
2022-11-28T08:48:11.806Z,16.53
2022-11-28T08:50:45.031Z,16.33
2022-11-28T08:53:18.521Z,17.40
2022-11-28T08:55:46.144Z,17.58
2022-11-28T08:58:13.947Z,16.30
2022-11-28T09:00:42.601Z,16.00
2022-11-28T09:03:19.348Z,14.77
2022-11-28T09:05:47.209Z,15.63
2022-11-28T09:08:15.718Z,14.90
2022-11-28T09:10:43.798Z,16.77
2022-11-28T09:13:11.655Z,16.08
2022-11-28T09:15:42.520Z,15.23
2022-11-28T09:18:09.988Z,17.23
2022-11-28T09:20:37.629Z,16.10
2022-11-28T09:23:05.437Z,14.75
2022-11-28T09:25:35.335Z,15.45
2022-11-28T09:28:02.920Z,13.95
2022-11-28T09:30:30.349Z,15.20
2022-11-28T09:32:57.698Z,15.65
2022-11-28T09:35:25.310Z,14.50
2022-11-28T09:37:52.687Z,15.57
2022-11-28T09:40:40.452Z,14.93
2022-11-28T09:43:38.431Z,16.70
2022-11-28T09:46:07.444Z,16.05
2022-11-28T09:48:51.044Z,16.62
2022-11-28T09:51:31.726Z,28.25
2022-11-28T09:54:14.016Z,19.30
2022-11-28T09:56:41.427Z,16.23
2022-11-28T09:59:21.159Z,16.70
2022-11-28T10:02:02.862Z,17.45
2022-11-28T10:04:56.744Z,16.27
2022-11-28T10:07:39.981Z,16.00
2022-11-28T10:10:29.547Z,15.60
2022-11-28T10:13:11.653Z,18.15
2022-11-28T10:15:59.855Z,15.48
2022-11-28T10:18:39.274Z,15.75
2022-11-28T10:21:29.976Z,15.93
2022-11-28T10:23:59.359Z,15.93
2022-11-28T10:26:32.229Z,17.63
2022-11-28T10:29:00.264Z,15.52
2022-11-28T10:31:36.574Z,15.32
2022-11-28T10:34:21.160Z,16.15
2022-11-28T10:37:01.214Z,15.60
2022-11-28T10:39:28.612Z,16.08
2022-11-28T10:42:12.082Z,16.60
2022-11-28T10:45:05.163Z,17.42
2022-11-28T10:47:51.138Z,16.55
2022-11-28T10:50:35.287Z,16.98
2022-11-28T10:53:25.741Z,17.67
2022-11-28T10:56:06.149Z,18.23
2022-11-28T10:58:50.306Z,18.92
2022-11-28T11:01:17.686Z,19.58
2022-11-28T11:03:45.321Z,18.08
2022-11-28T11:06:13.059Z,18.85
2022-11-28T11:08:40.846Z,18.33
2022-11-28T11:11:30.356Z,19.20
2022-11-28T11:14:10.599Z,18.55
2022-11-28T11:16:47.538Z,20.02
2022-11-28T11:22:21.893Z,18.67
2022-11-28T11:25:15.349Z,20.50
2022-11-28T11:27:59.870Z,19.55
2022-11-28T11:30:38.825Z,20.92
2022-11-28T11:33:07.218Z,19.40
2022-11-28T11:35:35.837Z,20.23
2022-11-28T11:38:21.317Z,20.30
2022-11-28T11:40:49.645Z,19.77
2022-11-28T11:43:23.029Z,20.70
2022-11-28T11:46:04.660Z,22.65
2022-11-28T11:48:39.880Z,21.35
2022-11-28T11:51:20.646Z,19.95
2022-11-28T11:53:47.985Z,21.55
2022-11-28T11:56:15.577Z,21.55
2022-11-28T11:58:51.289Z,22.95
2022-11-28T12:01:19.018Z,22.10
2022-11-28T12:03:53.538Z,21.00
2022-11-28T12:06:23.606Z,22.05
2022-11-28T12:08:58.112Z,21.67
2022-11-28T12:11:27.642Z,21.87
2022-11-28T12:13:55.778Z,21.33
2022-11-28T12:16:32.120Z,22.03
2022-11-28T12:22:12.119Z,20.52
2022-11-28T12:24:52.949Z,20.43
2022-11-28T12:27:31.960Z,20.70
2022-11-28T12:30:19.328Z,23.02
2022-11-28T12:33:08.451Z,21.70
2022-11-28T12:35:40.975Z,22.52
2022-11-28T12:38:26.676Z,22.67
2022-11-28T12:41:32.571Z,21.87
2022-11-28T12:47:08.133Z,20.63
2022-11-28T12:50:11.703Z,24.47
2022-11-28T12:52:49.396Z,22.60
2022-11-28T12:55:16.765Z,21.17
2022-11-28T12:57:49.278Z,22.60
2022-11-28T13:00:19.997Z,21.97
2022-11-28T13:03:08.616Z,21.03
2022-11-28T13:05:44.169Z,21.98
2022-11-28T13:08:49.374Z,22.17
2022-11-28T13:11:35.301Z,20.80
2022-11-28T13:14:31.550Z,21.75
2022-11-28T13:17:07.395Z,22.52
2022-11-28T13:19:48.945Z,21.30
2022-11-28T13:22:24.176Z,22.83
2022-11-28T13:25:27.323Z,21.33
2022-11-28T13:27:57.694Z,21.90
2022-11-28T13:30:26.516Z,21.00
2022-11-28T13:32:59.971Z,21.30
2022-11-28T13:35:27.867Z,22.27
2022-11-28T13:41:18.095Z,21.97
2022-11-28T13:44:07.984Z,23.13
2022-11-28T13:46:35.694Z,23.48
2022-11-28T13:49:15.247Z,23.03
2022-11-28T13:51:43.259Z,21.97
2022-11-28T13:54:22.854Z,21.35
2022-11-28T13:57:12.488Z,22.98
2022-11-28T13:59:39.893Z,24.67
2022-11-28T14:02:32.589Z,22.30
2022-11-28T14:05:00.404Z,25.57
2022-11-28T14:07:32.148Z,24.67
2022-11-28T14:10:24.215Z,25.52
2022-11-28T14:13:29.732Z,22.98
2022-11-28T14:19:09.663Z,23.43
2022-11-28T14:21:49.498Z,24.80
2022-11-28T14:24:41.347Z,23.17
2022-11-28T14:27:15.785Z,24.45
2022-11-28T14:29:43.208Z,23.40
2022-11-28T14:32:40.631Z,25.62
2022-11-28T14:35:37.996Z,25.35
2022-11-28T14:38:31.304Z,23.87
2022-11-28T14:41:00.210Z,24.02
2022-11-28T14:43:32.642Z,25.23
2022-11-28T14:46:16.061Z,23.37
2022-11-28T14:48:58.940Z,25.77
2022-11-28T14:51:48.298Z,22.73
2022-11-28T14:54:57.348Z,22.97
2022-11-28T14:57:38.081Z,22.67
2022-11-28T15:00:08.137Z,23.73
2022-11-28T15:02:48.734Z,24.73
2022-11-28T15:05:34.982Z,26.45
2022-11-28T15:08:14.944Z,24.23
2022-11-28T15:11:13.664Z,24.58
2022-11-28T15:13:50.561Z,24.27
2022-11-28T15:16:18.962Z,31.58
2022-11-28T15:18:49.046Z,27.17
2022-11-28T15:21:17.180Z,33.17
2022-11-28T15:23:46.966Z,32.97
2022-11-28T15:26:28.463Z,25.67
2022-11-28T15:29:24.522Z,23.50
2022-11-28T15:31:54.805Z,23.00
2022-11-28T15:34:33.586Z,25.33
2022-11-28T15:37:02.366Z,26.60
2022-11-28T15:39:39.936Z,25.20
2022-11-28T15:42:09.591Z,26.90
2022-11-28T15:44:37.778Z,26.73
2022-11-28T15:47:05.432Z,28.17
2022-11-28T15:49:34.273Z,28.13
2022-11-28T15:52:03.364Z,25.47
2022-11-28T15:54:38.219Z,25.47
2022-11-28T15:57:06.564Z,26.67
2022-11-28T15:59:34.113Z,35.03
2022-11-28T16:02:04.627Z,31.77
2022-11-28T16:04:32.268Z,39.47
2022-11-28T16:06:59.754Z,34.47
2022-11-28T16:09:33.894Z,26.63
2022-11-28T16:12:02.344Z,29.37
2022-11-28T16:14:36.368Z,27.43
2022-11-28T16:17:09.493Z,27.03
2022-11-28T16:19:37.297Z,27.07
2022-11-28T16:22:06.499Z,26.20
2022-11-28T16:24:43.293Z,25.50
2022-11-28T16:27:41.526Z,26.50
2022-11-28T16:30:29.816Z,27.53
2022-11-28T16:32:57.729Z,27.47
2022-11-28T16:35:28.955Z,23.73
2022-11-28T16:38:06.112Z,26.37
2022-11-28T16:40:33.451Z,25.30
2022-11-28T16:43:02.984Z,24.07
2022-11-28T16:45:33.389Z,24.80
2022-11-28T16:48:09.487Z,24.33
2022-11-28T16:50:36.924Z,26.77
2022-11-28T16:53:04.758Z,24.07
2022-11-28T16:55:32.371Z,26.30
2022-11-28T16:58:21.755Z,24.73
2022-11-28T17:00:58.193Z,26.43
2022-11-28T17:03:46.030Z,25.33
2022-11-28T17:06:19.276Z,27.20
2022-11-28T17:08:46.661Z,25.80
2022-11-28T17:11:14.600Z,26.97
2022-11-28T17:13:42.023Z,26.53
2022-11-28T17:16:27.804Z,28.30
2022-11-28T17:18:55.511Z,27.33
2022-11-28T17:21:43.224Z,27.60
2022-11-28T17:24:27.801Z,26.87
2022-11-28T17:26:55.189Z,28.10
2022-11-28T17:29:22.882Z,26.83
2022-11-28T17:31:50.289Z,27.27
2022-11-28T17:34:19.597Z,27.57
2022-11-28T17:36:47.918Z,29.80
2022-11-28T17:39:15.541Z,28.53
2022-11-28T17:41:43.116Z,28.27
2022-11-28T17:44:21.192Z,29.03
2022-11-28T17:46:52.237Z,27.87
2022-11-28T17:49:19.907Z,29.47
2022-11-28T17:51:49.201Z,28.13
2022-11-28T17:54:17.903Z,29.47
2022-11-28T17:56:47.310Z,27.03
2022-11-28T17:59:15.570Z,26.63
2022-11-28T18:01:44.140Z,28.67
2022-11-28T18:04:11.888Z,26.57
2022-11-28T18:06:39.383Z,25.60
2022-11-28T18:09:11.587Z,28.00
2022-11-28T18:11:40.655Z,28.13
2022-11-28T18:14:09.131Z,28.00
2022-11-28T18:16:36.747Z,29.17
2022-11-28T18:19:04.380Z,27.53
2022-11-28T18:21:32.390Z,28.43
2022-11-28T18:23:59.803Z,30.00
2022-11-28T18:26:27.470Z,28.90
2022-11-28T18:28:54.856Z,29.40
2022-11-28T18:31:24.487Z,27.90
2022-11-28T18:33:55.121Z,28.00
2022-11-28T18:36:25.974Z,27.97
2022-11-28T18:39:01.972Z,27.47
2022-11-28T18:41:29.368Z,27.30
2022-11-28T18:43:58.761Z,27.57
2022-11-28T18:46:26.723Z,27.63
2022-11-28T18:48:54.135Z,26.63
2022-11-28T18:51:23.761Z,28.93
2022-11-28T18:53:51.463Z,27.30
2022-11-28T18:56:19.214Z,29.70
2022-11-28T18:58:53.062Z,26.57
2022-11-28T19:01:25.523Z,28.23
2022-11-28T19:03:56.047Z,29.90
2022-11-28T19:06:23.771Z,27.20
2022-11-28T19:08:58.744Z,26.13
2022-11-28T19:11:28.541Z,26.73
2022-11-28T19:13:56.639Z,27.33
2022-11-28T19:16:25.988Z,25.03
2022-11-28T19:18:53.707Z,25.47
2022-11-28T19:21:22.836Z,26.87
2022-11-28T19:23:50.243Z,26.73
2022-11-28T19:26:19.690Z,29.03
2022-11-28T19:28:48.103Z,26.87
2022-11-28T19:31:17.155Z,26.17
2022-11-28T19:33:44.779Z,27.13
2022-11-28T19:36:13.236Z,27.40
2022-11-28T19:38:41.113Z,26.17
2022-11-28T19:41:13.677Z,26.47
2022-11-28T19:43:41.427Z,26.97
2022-11-28T19:46:09.510Z,26.10
2022-11-28T19:48:37.277Z,25.87
2022-11-28T19:51:04.979Z,26.17
2022-11-28T19:53:33.901Z,26.20
2022-11-28T19:56:05.552Z,26.83
2022-11-28T19:58:36.583Z,26.13
2022-11-28T20:01:08.663Z,27.20
2022-11-28T20:03:36.875Z,27.20
2022-11-28T20:06:11.778Z,27.50
2022-11-28T20:08:39.577Z,27.37
2022-11-28T20:11:08.754Z,26.33
2022-11-28T20:13:36.368Z,27.43
2022-11-28T20:16:05.010Z,27.90
2022-11-28T20:18:32.675Z,27.40
2022-11-28T20:21:12.919Z,27.07
2022-11-28T20:23:41.652Z,28.33
2022-11-28T20:26:09.290Z,27.27
2022-11-28T20:28:37.863Z,27.33
2022-11-28T20:31:06.019Z,26.83
2022-11-28T20:33:33.663Z,28.73
2022-11-28T20:36:08.204Z,27.33
2022-11-28T20:38:35.902Z,27.70
2022-11-28T20:41:04.704Z,28.53
2022-11-28T20:43:32.352Z,27.63
2022-11-28T20:46:16.447Z,27.63
2022-11-28T20:48:43.957Z,27.53
2022-11-28T20:51:13.140Z,26.57
2022-11-28T20:53:41.389Z,29.63
2022-11-28T20:56:11.506Z,26.07
2022-11-28T20:58:39.089Z,28.57
2022-11-28T21:01:06.545Z,28.37
2022-11-28T21:03:34.212Z,31.63
2022-11-28T21:06:01.913Z,26.47
2022-11-28T21:08:33.754Z,28.67
2022-11-28T21:11:05.922Z,29.80
2022-11-28T21:13:33.598Z,29.70
2022-11-28T21:16:08.886Z,28.37
2022-11-28T21:18:36.899Z,28.07
2022-11-28T21:21:11.839Z,29.83
2022-11-28T21:23:39.426Z,27.43
2022-11-28T21:26:09.245Z,29.53
2022-11-28T21:28:36.946Z,28.57
2022-11-28T21:31:09.354Z,30.17
2022-11-28T21:33:36.712Z,28.60
2022-11-28T21:36:04.610Z,28.30
2022-11-28T21:38:32.287Z,28.87
2022-11-28T21:40:59.616Z,27.93
2022-11-28T21:43:30.083Z,26.67
2022-11-28T21:46:04.621Z,28.57
2022-11-28T21:48:32.146Z,30.67
2022-11-28T21:50:59.904Z,28.70
2022-11-28T21:53:28.855Z,27.50
2022-11-28T21:55:56.224Z,28.87
2022-11-28T21:58:26.827Z,25.97
2022-11-28T22:01:01.876Z,28.63
2022-11-28T22:03:29.733Z,27.23
2022-11-28T22:06:01.809Z,26.80
2022-11-28T22:08:29.678Z,27.10
2022-11-28T22:11:03.619Z,26.13
2022-11-28T22:13:31.393Z,27.63
2022-11-28T22:15:59.002Z,25.83
2022-11-28T22:18:28.832Z,27.47
2022-11-28T22:21:06.483Z,25.97
2022-11-28T22:23:37.651Z,27.33
2022-11-28T22:26:05.620Z,25.67
2022-11-28T22:28:33.894Z,27.73
2022-11-28T22:31:08.776Z,27.73
2022-11-28T22:33:36.278Z,26.77
2022-11-28T22:36:08.618Z,28.37
2022-11-28T22:38:35.944Z,28.60
2022-11-28T22:41:10.908Z,27.17
2022-11-28T22:43:38.457Z,28.93
2022-11-28T22:46:06.376Z,27.67
2022-11-28T22:48:34.511Z,26.87
2022-11-28T22:51:11.876Z,27.93
2022-11-28T22:53:39.484Z,27.87
2022-11-28T22:56:11.281Z,27.20
2022-11-28T22:58:42.713Z,29.77
2022-11-28T23:01:17.287Z,29.03
2022-11-28T23:03:45.644Z,29.10
2022-11-28T23:06:15.065Z,27.73
2022-11-28T23:08:42.879Z,26.73
2022-11-28T23:11:15.459Z,27.87
2022-11-28T23:13:43.043Z,27.03
2022-11-28T23:16:24.650Z,28.33
2022-11-28T23:18:54.315Z,28.87
2022-11-28T23:21:22.781Z,27.27
2022-11-28T23:23:50.204Z,28.67
2022-11-28T23:26:19.413Z,29.83
2022-11-28T23:28:47.800Z,27.87
2022-11-28T23:31:25.724Z,30.53
2022-11-28T23:33:54.416Z,27.80
2022-11-28T23:36:23.681Z,26.57
2022-11-28T23:38:52.576Z,27.57
2022-11-28T23:41:20.178Z,27.70
2022-11-28T23:43:47.525Z,26.53
2022-11-28T23:46:15.156Z,27.57
2022-11-28T23:48:43.724Z,28.03
2022-11-28T23:51:12.836Z,25.47
2022-11-28T23:53:40.330Z,27.47
2022-11-28T23:56:24.383Z,24.13
2022-11-28T23:58:52.036Z,25.20
